Time;durP1;ratioP1;P1;durP2;ratioP2;P2;SDS_P1;SDS_P2;PMS_P1;PMS_P2;Temp;Humidity;BMP_temperature;BMP_pressure;BME280_temperature;BME280_humidity;BME280_pressure;Samples;Min_cycle;Max_cycle;Signal;HPM_P1;HPM_P2
2022/11/06 00:01:43;;;;;;;31.75;29.55;;;5.80;94.60;;;;;;5010271;28;20214;-67
2022/11/06 00:04:10;;;;;;;29.77;27.67;;;5.80;94.40;;;;;;5010515;28;20861;-67
2022/11/06 00:06:47;;;;;;;26.50;24.40;;;5.80;94.40;;;;;;5010067;28;20817;-67
2022/11/06 00:09:17;;;;;;;30.02;27.67;;;5.80;94.60;;;;;;5006334;28;20194;-67
2022/11/06 00:11:44;;;;;;;29.20;26.75;;;5.70;94.80;;;;;;5008818;28;21191;-67
2022/11/06 00:14:12;;;;;;;29.85;27.60;;;5.80;94.90;;;;;;5011666;28;20209;-67
2022/11/06 00:16:41;;;;;;;28.67;26.58;;;5.80;94.90;;;;;;5012868;28;20217;-67
2022/11/06 00:19:09;;;;;;;29.55;27.48;;;5.80;95.50;;;;;;5020094;28;20396;-67
2022/11/06 00:21:36;;;;;;;29.23;26.88;;;5.90;95.00;;;;;;5009902;28;20217;-67
2022/11/06 00:24:05;;;;;;;28.75;26.40;;;5.80;94.90;;;;;;5013736;28;20879;-67
2022/11/06 00:26:33;;;;;;;31.65;29.30;;;5.80;95.00;;;;;;5009217;28;20312;-67
2022/11/06 00:29:00;;;;;;;28.98;26.67;;;5.80;94.90;;;;;;5027033;28;20293;-67
2022/11/06 00:31:30;;;;;;;40.90;38.30;;;5.80;94.70;;;;;;5010563;28;20191;-67
2022/11/06 00:33:58;;;;;;;26.90;24.75;;;5.80;94.80;;;;;;5016469;28;20627;-67
2022/11/06 00:36:29;;;;;;;28.55;26.05;;;5.70;94.80;;;;;;5008953;28;20221;-67
2022/11/06 00:38:56;;;;;;;27.38;25.15;;;5.70;94.90;;;;;;5003442;28;20198;-67
2022/11/06 00:41:24;;;;;;;29.27;26.98;;;5.70;95.00;;;;;;5008397;28;20225;-67
2022/11/06 00:43:52;;;;;;;29.13;26.63;;;5.80;94.90;;;;;;5009855;28;20742;-67
2022/11/06 00:46:19;;;;;;;28.23;26.02;;;5.70;95.20;;;;;;5007976;28;20217;-67
2022/11/06 00:48:48;;;;;;;27.25;25.15;;;5.70;95.30;;;;;;5012941;28;20562;-67
2022/11/06 00:51:17;;;;;;;27.98;25.60;;;5.80;95.30;;;;;;5012097;28;20202;-67
2022/11/06 00:53:45;;;;;;;28.55;26.27;;;5.70;95.20;;;;;;5009784;28;20204;-67
2022/11/06 00:56:14;;;;;;;28.30;25.63;;;5.70;95.30;;;;;;5010028;28;20213;-67
2022/11/06 00:58:41;;;;;;;27.90;25.77;;;5.60;95.90;;;;;;5028189;28;20697;-67
2022/11/06 01:01:10;;;;;;;28.63;26.23;;;5.60;96.10;;;;;;5009872;28;20204;-67
2022/11/06 01:03:38;;;;;;;27.58;25.48;;;5.60;96.30;;;;;;5008386;28;20197;-67
2022/11/06 01:06:09;;;;;;;28.27;26.17;;;5.50;96.40;;;;;;5008578;28;20220;-67
2022/11/06 01:08:36;;;;;;;656.92;139.45;;;5.50;96.50;;;;;;5012534;28;20284;-68
2022/11/06 01:11:09;;;;;;;29.27;26.83;;;5.50;96.80;;;;;;5011849;28;20193;-67
2022/11/06 01:13:36;;;;;;;28.95;26.75;;;5.60;97.30;;;;;;5007790;28;20202;-67
2022/11/06 01:16:05;;;;;;;26.55;24.65;;;5.60;97.00;;;;;;5004346;28;20224;-67
2022/11/06 01:18:33;;;;;;;29.67;26.88;;;5.60;96.70;;;;;;5007866;28;20205;-67
2022/11/06 01:21:03;;;;;;;28.85;26.55;;;5.60;96.70;;;;;;5008990;28;20221;-67
2022/11/06 01:23:31;;;;;;;30.63;28.02;;;5.50;96.50;;;;;;5009213;28;20208;-67
2022/11/06 01:25:59;;;;;;;32.92;27.90;;;5.50;96.80;;;;;;5007910;28;20230;-67
2022/11/06 01:28:26;;;;;;;29.67;27.38;;;5.50;97.30;;;;;;5023397;28;20681;-69
2022/11/06 01:30:54;;;;;;;28.65;26.25;;;5.50;97.50;;;;;;5009597;28;20583;-67
2022/11/06 01:33:21;;;;;;;29.02;26.63;;;5.50;97.30;;;;;;5005519;28;20280;-67
2022/11/06 01:35:49;;;;;;;26.98;25.05;;;5.50;96.80;;;;;;5005037;28;20249;-67
2022/11/06 01:38:17;;;;;;;28.15;26.00;;;5.60;96.60;;;;;;5005763;28;20198;-67
2022/11/06 01:40:47;;;;;;;573.08;104.50;;;5.50;97.30;;;;;;5011857;28;20628;-67
2022/11/06 01:43:16;;;;;;;30.17;27.98;;;5.50;97.30;;;;;;5003958;28;20729;-68
2022/11/06 01:45:44;;;;;;;29.55;27.25;;;5.50;97.20;;;;;;5004721;28;20217;-67
2022/11/06 01:48:13;;;;;;;29.30;27.10;;;5.50;96.70;;;;;;5001807;28;20288;-68
2022/11/06 01:50:43;;;;;;;30.85;28.35;;;5.40;96.70;;;;;;5007047;28;20204;-67
2022/11/06 01:53:11;;;;;;;271.50;55.80;;;5.40;96.50;;;;;;5027016;28;20286;-67
2022/11/06 01:55:42;;;;;;;31.30;28.70;;;5.30;96.40;;;;;;5007359;28;20218;-67
2022/11/06 01:58:15;;;;;;;31.55;28.83;;;5.30;96.70;;;;;;5003943;28;20225;-67
2022/11/06 02:00:42;;;;;;;29.10;27.00;;;5.20;96.70;;;;;;5009764;28;20849;-67
2022/11/06 02:03:11;;;;;;;28.75;26.55;;;5.20;96.60;;;;;;5007799;28;20305;-67
2022/11/06 02:05:39;;;;;;;28.85;26.63;;;5.20;96.60;;;;;;5015367;28;20275;-67
2022/11/06 02:08:06;;;;;;;29.58;27.38;;;5.20;96.40;;;;;;5008757;28;20651;-68
2022/11/06 02:10:34;;;;;;;31.35;28.73;;;5.10;96.40;;;;;;5006848;28;20322;-69
2022/11/06 02:13:18;;;;;;;376.75;66.10;;;5.10;97.30;;;;;;5006294;28;22074;-69
2022/11/06 02:15:49;;;;;;;31.17;28.88;;;5.10;98.00;;;;;;4997123;28;20228;-68
2022/11/06 02:18:40;;;;;;;27.42;25.23;;;5.20;97.90;;;;;;5008253;28;20251;-69
2022/11/06 02:21:38;;;;;;;30.13;27.70;;;5.20;97.20;;;;;;5018095;28;20282;-69
2022/11/06 02:24:28;;;;;;;28.08;25.88;;;5.10;97.00;;;;;;4987179;28;20303;-69
2022/11/06 02:27:03;;;;;;;29.30;27.00;;;5.00;96.90;;;;;;5004471;28;20225;-68
2022/11/06 02:29:34;;;;;;;29.15;26.75;;;5.00;96.80;;;;;;5009746;28;20197;-68
2022/11/06 02:32:07;;;;;;;28.77;26.33;;;5.00;96.90;;;;;;5006720;28;20284;-69
2022/11/06 02:34:36;;;;;;;28.20;26.10;;;4.90;96.90;;;;;;5004185;28;20212;-69
2022/11/06 02:37:08;;;;;;;28.75;26.55;;;5.00;96.80;;;;;;5001619;28;20269;-69
2022/11/06 02:39:38;;;;;;;28.63;26.23;;;4.90;96.60;;;;;;5008678;28;20204;-69
2022/11/06 02:42:10;;;;;;;28.67;25.95;;;4.90;96.50;;;;;;5010398;28;20209;-69
2022/11/06 02:44:38;;;;;;;29.45;27.15;;;4.90;96.50;;;;;;5007734;28;20200;-68
2022/11/06 02:47:09;;;;;;;28.25;26.02;;;4.90;96.60;;;;;;5007853;28;20225;-69
2022/11/06 02:49:40;;;;;;;28.70;26.10;;;4.80;96.70;;;;;;5004612;28;20312;-68
2022/11/06 02:52:12;;;;;;;28.73;26.33;;;4.80;96.60;;;;;;5008760;28;20696;-69
2022/11/06 02:54:45;;;;;;;28.20;26.10;;;4.80;96.50;;;;;;5009149;28;20285;-69
2022/11/06 02:57:14;;;;;;;27.23;25.50;;;4.80;96.40;;;;;;5007342;28;20294;-68
2022/11/06 02:59:47;;;;;;;28.27;25.98;;;4.80;96.30;;;;;;5001604;28;20191;-69
2022/11/06 03:02:19;;;;;;;28.05;25.80;;;4.80;96.20;;;;;;5004940;28;20658;-69
2022/11/06 03:04:52;;;;;;;27.92;25.80;;;4.80;96.30;;;;;;5003249;28;20299;-69
2022/11/06 03:07:27;;;;;;;29.10;26.73;;;4.70;96.20;;;;;;5013841;28;20302;-69
2022/11/06 03:09:55;;;;;;;30.48;28.15;;;4.70;96.30;;;;;;5014336;28;20201;-68
2022/11/06 03:12:27;;;;;;;28.20;26.02;;;4.70;96.50;;;;;;5003184;28;20204;-69
2022/11/06 03:14:59;;;;;;;28.70;26.38;;;4.70;96.50;;;;;;4997599;28;20204;-69
2022/11/06 03:17:35;;;;;;;28.27;26.25;;;4.70;96.50;;;;;;5011255;28;20230;-69
2022/11/06 03:20:09;;;;;;;29.13;26.98;;;4.70;96.60;;;;;;4997766;28;20292;-67
2022/11/06 03:22:41;;;;;;;29.00;26.67;;;4.70;96.50;;;;;;5006623;28;20329;-67
2022/11/06 03:25:15;;;;;;;29.27;27.27;;;4.70;96.80;;;;;;5009915;28;20288;-67
2022/11/06 03:27:52;;;;;;;29.92;27.58;;;4.70;96.70;;;;;;5010419;28;20622;-67
2022/11/06 03:30:20;;;;;;;27.52;25.42;;;4.70;96.70;;;;;;5017335;28;20288;-67
2022/11/06 03:32:51;;;;;;;29.15;26.95;;;4.70;96.60;;;;;;5000967;28;20525;-67
2022/11/06 03:35:24;;;;;;;30.77;28.58;;;4.60;96.60;;;;;;5015063;28;20300;-68
2022/11/06 03:37:57;;;;;;;26.88;24.88;;;4.70;96.20;;;;;;5009597;28;20202;-67
2022/11/06 03:40:28;;;;;;;29.65;27.38;;;4.70;95.90;;;;;;5015854;28;20540;-67
2022/11/06 03:43:03;;;;;;;30.30;28.02;;;4.60;96.00;;;;;;5011208;28;21086;-67
2022/11/06 03:45:32;;;;;;;31.00;28.88;;;4.70;95.90;;;;;;5008124;28;20594;-67
2022/11/06 03:48:02;;;;;;;27.98;25.85;;;4.60;96.00;;;;;;5012224;28;20205;-67
2022/11/06 03:50:33;;;;;;;487.20;92.88;;;4.60;96.30;;;;;;5002133;28;20206;-68
2022/11/06 03:53:06;;;;;;;52.60;29.88;;;4.60;97.40;;;;;;5005806;28;20560;-68
2022/11/06 03:55:38;;;;;;;1778.43;276.35;;;4.60;97.30;;;;;;5004384;28;21072;-68
2022/11/06 03:58:10;;;;;;;1999.90;376.08;;;4.60;98.10;;;;;;5024985;28;20199;-67
2022/11/06 04:00:40;;;;;;;1596.72;251.23;;;4.60;99.20;;;;;;5004219;28;20645;-67
2022/11/06 04:03:15;;;;;;;146.07;38.88;;;4.60;99.90;;;;;;5003969;28;20225;-67
2022/11/06 04:05:47;;;;;;;368.05;65.32;;;4.60;99.20;;;;;;5005410;28;20218;-68
2022/11/06 04:13:59;;;;;;;30.25;27.90;;;4.60;98.50;;;;;;5002071;28;20293;-69
2022/11/06 04:16:30;;;;;;;28.88;26.45;;;4.50;98.20;;;;;;5010413;28;20700;-69
2022/11/06 04:18:57;;;;;;;1952.00;408.27;;;4.60;98.10;;;;;;5010432;28;20261;-69
2022/11/06 04:21:32;;;;;;;30.35;27.75;;;4.60;97.60;;;;;;5008933;28;20194;-68
2022/11/06 04:27:05;;;;;;;27.40;25.35;;;4.50;98.60;;;;;;5010917;28;20243;-68
2022/11/06 04:29:45;;;;;;;28.80;26.85;;;4.40;98.30;;;;;;5012950;28;20206;-69
2022/11/06 04:32:21;;;;;;;29.92;27.73;;;4.40;98.00;;;;;;5002248;28;20193;-70
2022/11/06 04:34:56;;;;;;;30.27;28.10;;;4.40;97.40;;;;;;5009961;28;20297;-73
2022/11/06 04:37:32;;;;;;;31.38;28.52;;;4.40;97.50;;;;;;5003094;28;20318;-69
2022/11/06 04:40:07;;;;;;;83.53;33.80;;;4.40;97.50;;;;;;5008183;28;20204;-68
2022/11/06 04:42:42;;;;;;;30.45;28.05;;;4.40;97.80;;;;;;5009112;28;20224;-68
2022/11/06 04:45:14;;;;;;;29.00;27.00;;;4.40;97.50;;;;;;5001813;28;20246;-69
2022/11/06 04:47:42;;;;;;;26.88;24.77;;;4.40;97.10;;;;;;5001951;28;20285;-68
2022/11/06 04:50:13;;;;;;;29.52;27.02;;;4.40;97.10;;;;;;5011430;28;20676;-71
2022/11/06 04:52:41;;;;;;;28.67;26.67;;;4.30;97.10;;;;;;5009538;28;20201;-70
2022/11/06 04:55:08;;;;;;;1999.90;683.38;;;4.30;97.20;;;;;;5023232;28;20316;-71
2022/11/06 04:57:35;;;;;;;31.02;28.33;;;4.30;97.50;;;;;;5005684;28;20294;-67
2022/11/06 05:00:03;;;;;;;27.70;25.50;;;4.30;97.90;;;;;;5008590;28;20226;-68
2022/11/06 05:02:31;;;;;;;30.42;28.35;;;4.40;97.50;;;;;;5014738;28;20712;-67
2022/11/06 05:04:58;;;;;;;27.40;25.40;;;4.30;97.40;;;;;;5005859;28;20277;-68
2022/11/06 05:07:25;;;;;;;41.20;28.27;;;4.30;97.10;;;;;;5008572;28;20580;-68
2022/11/06 05:09:52;;;;;;;28.95;26.67;;;4.30;96.80;;;;;;5014554;28;20286;-68
2022/11/06 05:12:19;;;;;;;27.80;25.80;;;4.30;96.70;;;;;;5007851;28;20316;-67
2022/11/06 05:14:45;;;;;;;28.92;26.83;;;4.30;97.20;;;;;;5005738;28;20210;-68
2022/11/06 05:17:12;;;;;;;27.95;25.75;;;4.30;97.40;;;;;;5010782;28;20293;-66
2022/11/06 05:19:41;;;;;;;26.88;24.98;;;4.30;96.90;;;;;;5005384;28;20293;-66
